Time;durP1;ratioP1;P1;durP2;ratioP2;P2;SDS_P1;SDS_P2;PMS_P1;PMS_P2;Temp;Humidity;BMP_temperature;BMP_pressure;BME280_temperature;BME280_humidity;BME280_pressure;Samples;Min_cycle;Max_cycle;Signal;HPM_P1;HPM_P2
2022/12/26 00:02:09;;;;;;;;;;;;;;;10.55;46.16;99737.09;5016242;28;19952;-85
2022/12/26 00:04:35;;;;;;;;;;;;;;;10.50;46.17;99737.38;5015721;28;20463;-85
2022/12/26 00:07:00;;;;;;;;;;;;;;;10.48;46.12;99738.38;5015998;28;19923;-85
2022/12/26 00:09:25;;;;;;;;;;;;;;;10.46;46.20;99745.47;4999357;28;19921;-85
2022/12/26 00:11:51;;;;;;;;;;;;;;;10.44;46.30;99750.78;5016391;28;19967;-79
2022/12/26 00:14:16;;;;;;;;;;;;;;;10.41;46.28;99761.41;5032513;28;19953;-77
2022/12/26 00:16:42;;;;;;;;;;;;;;;10.42;46.16;99762.25;5032172;28;19982;-81
2022/12/26 00:19:07;;;;;;;;;;;;;;;10.41;46.09;99768.41;5021757;28;19920;-80
2022/12/26 00:21:32;;;;;;;;;;;;;;;10.39;46.18;99765.91;5052113;28;19916;-81
2022/12/26 00:23:58;;;;;;;;;;;;;;;10.38;46.13;99769.44;5051843;28;19917;-81
2022/12/26 00:26:24;;;;;;;;;;;;;;;10.38;46.22;99773.81;5052629;28;20293;-81
2022/12/26 00:28:49;;;;;;;;;;;;;;;10.36;46.45;99784.34;5035159;28;19938;-82
2022/12/26 00:31:16;;;;;;;;;;;;;;;10.36;46.38;99789.56;5034650;28;19925;-81
2022/12/26 00:33:41;;;;;;;;;;;;;;;10.35;46.32;99785.25;5035081;28;19917;-81
2022/12/26 00:36:09;;;;;;;;;;;;;;;10.34;46.54;99793.19;5052379;28;20280;-82
2022/12/26 00:38:35;;;;;;;;;;;;;;;10.31;46.52;99788.97;5035031;28;19991;-80
2022/12/26 00:41:00;;;;;;;;;;;;;;;10.30;46.70;99785.50;5035325;28;19921;-77
2022/12/26 00:43:25;;;;;;;;;;;;;;;10.28;46.49;99783.94;5051849;28;19917;-79
2022/12/26 00:45:51;;;;;;;;;;;;;;;10.26;46.69;99788.38;5051748;28;19944;-79
2022/12/26 00:48:16;;;;;;;;;;;;;;;10.24;46.65;99785.84;5051707;28;20380;-77
2022/12/26 00:50:41;;;;;;;;;;;;;;;10.23;46.75;99786.81;5034935;28;20300;-78
2022/12/26 00:53:06;;;;;;;;;;;;;;;10.22;46.84;99795.56;5034840;28;19999;-81
2022/12/26 00:55:32;;;;;;;;;;;;;;;10.21;46.78;99790.41;5051637;28;19929;-81
2022/12/26 00:57:57;;;;;;;;;;;;;;;10.22;46.77;99792.09;5034711;28;19916;-80
2022/12/26 01:00:22;;;;;;;;;;;;;;;10.20;46.71;99788.72;5051768;28;20321;-80
2022/12/26 01:02:48;;;;;;;;;;;;;;;10.18;46.77;99786.22;5034778;28;20299;-79
2022/12/26 01:05:13;;;;;;;;;;;;;;;10.17;46.77;99787.16;5051613;28;19917;-78
2022/12/26 01:07:39;;;;;;;;;;;;;;;10.14;46.97;99785.56;5050800;28;19921;-80
2022/12/26 01:10:05;;;;;;;;;;;;;;;10.13;46.99;99783.03;5033717;28;19971;-80
2022/12/26 01:12:32;;;;;;;;;;;;;;;10.12;47.00;99789.16;5051224;28;20355;-80
2022/12/26 01:14:58;;;;;;;;;;;;;;;10.11;47.09;99800.56;5034817;28;19921;-79
2022/12/26 01:17:23;;;;;;;;;;;;;;;10.10;47.03;99793.63;5034224;28;19916;-79
2022/12/26 01:19:49;;;;;;;;;;;;;;;10.08;47.05;99796.34;5050933;28;19987;-80
2022/12/26 01:22:14;;;;;;;;;;;;;;;10.07;47.20;99809.47;5051217;28;19917;-79
2022/12/26 01:24:39;;;;;;;;;;;;;;;10.07;47.16;99814.69;5052190;28;19917;-79
2022/12/26 01:27:05;;;;;;;;;;;;;;;10.05;47.23;99813.94;5051438;28;19917;-78
2022/12/26 01:29:30;;;;;;;;;;;;;;;10.06;47.20;99813.03;5050870;28;19916;-80
2022/12/26 01:31:55;;;;;;;;;;;;;;;10.03;47.22;99815.81;5051271;28;20451;-80
2022/12/26 01:34:21;;;;;;;;;;;;;;;10.03;47.18;99815.81;5042138;28;19925;-80
2022/12/26 01:36:46;;;;;;;;;;;;;;;10.02;47.01;99811.50;5030887;28;19917;-80
2022/12/26 01:39:11;;;;;;;;;;;;;;;10.00;47.14;99800.31;5031308;28;19921;-80
2022/12/26 01:41:37;;;;;;;;;;;;;;;9.99;47.25;99796.03;5014406;28;20012;-80
2022/12/26 01:44:03;;;;;;;;;;;;;;;9.98;47.27;99791.72;5032521;28;19917;-80
2022/12/26 01:46:28;;;;;;;;;;;;;;;9.94;47.25;99793.69;5015099;28;19922;-79
2022/12/26 01:48:54;;;;;;;;;;;;;;;9.93;47.21;99790.25;5014556;28;19971;-80
2022/12/26 01:51:20;;;;;;;;;;;;;;;9.92;47.35;99779.91;4997891;28;20012;-80
2022/12/26 01:53:46;;;;;;;;;;;;;;;9.90;47.01;99782.59;5014377;28;19964;-80
2022/12/26 01:56:22;;;;;;;;;;;;;;;9.89;47.25;99783.50;4997624;28;19987;-80
2022/12/26 01:58:49;;;;;;;;;;;;;;;9.87;47.24;99774.09;5032211;28;19939;-78
2022/12/26 02:01:14;;;;;;;;;;;;;;;9.84;47.37;99775.09;5014777;28;19917;-79
2022/12/26 02:06:24;;;;;;;;;;;;;;;9.81;47.47;99783.09;5031347;28;19995;-81
2022/12/26 02:08:49;;;;;;;;;;;;;;;9.79;47.40;99787.56;5030703;28;20388;-81
2022/12/26 02:11:21;;;;;;;;;;;;;;;9.77;47.46;99790.28;5032330;28;20435;-78
2022/12/26 02:13:47;;;;;;;;;;;;;;;9.75;47.44;99786.06;5014088;28;19917;-81
2022/12/26 02:16:13;;;;;;;;;;;;;;;9.72;47.59;99787.06;5030956;28;19943;-82
2022/12/26 02:18:38;;;;;;;;;;;;;;;9.70;47.44;99794.13;5033484;28;19968;-80
2022/12/26 02:21:22;;;;;;;;;;;;;;;9.69;47.57;99792.44;5017831;28;19956;-80
2022/12/26 02:23:50;;;;;;;;;;;;;;;9.67;47.63;99793.47;5035520;28;19957;-79
2022/12/26 02:26:15;;;;;;;;;;;;;;;9.65;47.74;99790.94;5035316;28;19924;-80
2022/12/26 02:28:47;;;;;;;;;;;;;;;9.64;47.70;99793.63;5053482;28;19920;-80
2022/12/26 02:31:30;;;;;;;;;;;;;;;9.61;47.54;99789.41;5055293;28;19991;-79
2022/12/26 02:33:59;;;;;;;;;;;;;;;9.58;47.85;99793.06;5053958;28;19916;-77
2022/12/26 02:36:29;;;;;;;;;;;;;;;9.57;47.78;99803.56;5037655;28;19920;-78
2022/12/26 02:39:03;;;;;;;;;;;;;;;9.54;47.82;99796.75;5053809;28;20008;-78
2022/12/26 02:41:58;;;;;;;;;;;;;;;9.54;47.83;99804.56;5053855;28;19986;-79
2022/12/26 02:47:09;;;;;;;;;;;;;;;9.50;48.06;99816.06;5013754;28;19928;-79
2022/12/26 03:13:09;;;;;;;;;;;;;;;9.47;47.94;99816.28;5003039;28;19922;-80
2022/12/26 03:14:44;;;;;;;;;;;;;;;9.29;48.36;99828.50;4999535;28;19956;-81
2022/12/26 03:17:19;;;;;;;;;;;;;;;9.28;48.53;99825.97;4996204;28;20370;-81
2022/12/26 03:20:00;;;;;;;;;;;;;;;9.27;48.20;99814.72;4999609;28;19996;-73
2022/12/26 03:22:30;;;;;;;;;;;;;;;9.26;48.28;99809.59;5036235;28;19964;-83
2022/12/26 03:27:40;;;;;;;;;;;;;;;9.21;48.32;99812.47;5039328;28;19924;-81
2022/12/26 03:32:50;;;;;;;;;;;;;;;9.17;48.52;99816.13;5054201;28;19944;-81
2022/12/26 03:35:15;;;;;;;;;;;;;;;9.15;48.70;99811.00;5036337;28;20368;-81
2022/12/26 03:37:46;;;;;;;;;;;;;;;9.15;48.61;99804.97;5019736;28;19917;-82
2022/12/26 04:20:32;;;;;;;;;;;;;;;8.97;49.13;99806.78;4915564;29;20034;-84
2022/12/26 04:45:47;;;;;;;;;;;;;;;8.82;49.37;99856.13;5018374;28;19923;-81
2022/12/26 04:50:56;;;;;;;;;;;;;;;8.80;49.39;99860.56;5011168;28;19928;-82
2022/12/26 04:53:21;;;;;;;;;;;;;;;8.79;49.38;99858.03;4998756;28;20011;-78
2022/12/26 04:55:47;;;;;;;;;;;;;;;8.77;49.35;99868.53;5028234;28;19975;-81
2022/12/26 04:58:12;;;;;;;;;;;;;;;8.77;49.21;99871.13;5034221;28;19917;-80
2022/12/26 05:00:37;;;;;;;;;;;;;;;8.76;49.48;99874.69;5051577;28;19916;-81
2022/12/26 05:11:18;;;;;;;;;;;;;;;8.72;49.41;99893.97;5032787;28;20471;-79
2022/12/26 05:13:43;;;;;;;;;;;;;;;8.72;49.03;99895.72;5031380;28;19992;-79
2022/12/26 05:29:48;;;;;;;;;;;;;;;8.63;49.27;99894.41;5051997;28;19924;-79
2022/12/26 05:34:57;;;;;;;;;;;;;;;8.61;49.30;99898.88;5051258;28;19975;-82
2022/12/26 05:37:23;;;;;;;;;;;;;;;8.61;49.14;99901.47;5050914;28;19921;-84
2022/12/26 05:39:50;;;;;;;;;;;;;;;8.60;49.57;99890.22;5050905;28;19916;-81
2022/12/26 05:42:16;;;;;;;;;;;;;;;8.60;49.17;99892.81;5043691;28;19917;-82
2022/12/26 05:44:43;;;;;;;;;;;;;;;8.61;49.31;99896.25;5030919;28;19975;-82
2022/12/26 05:47:09;;;;;;;;;;;;;;;8.59;49.31;99908.53;5031800;28;20329;-81
2022/12/26 05:49:35;;;;;;;;;;;;;;;8.59;49.50;99901.53;5031227;28;20059;-80
2022/12/26 05:52:00;;;;;;;;;;;;;;;8.59;49.34;99904.16;5033376;28;19925;-81
2022/12/26 05:54:25;;;;;;;;;;;;;;;8.64;49.04;99898.72;5055191;28;19924;-81
2022/12/26 05:56:52;;;;;;;;;;;;;;;8.83;48.54;99902.06;5055777;28;19921;-81
2022/12/26 05:59:17;;;;;;;;;;;;;;;9.14;48.42;99892.69;5055754;28;20021;-80
2022/12/26 06:01:42;;;;;;;;;;;;;;;9.51;47.75;99900.34;5037975;28;19948;-81
2022/12/26 06:04:08;;;;;;;;;;;;;;;9.91;46.97;99899.00;5055847;28;20453;-81
2022/12/26 06:06:33;;;;;;;;;;;;;;;10.38;46.18;99899.94;5054920;28;19999;-78
2022/12/26 06:08:58;;;;;;;;;;;;;;;10.98;45.19;99908.69;5037432;28;19923;-77
2022/12/26 06:11:25;;;;;;;;;;;;;;;11.67;43.86;99909.72;5054460;28;19924;-83
2022/12/26 06:13:50;;;;;;;;;;;;;;;12.48;42.78;99903.72;5027480;28;19932;-79
2022/12/26 06:16:16;;;;;;;;;;;;;;;13.32;40.88;99900.78;5034240;28;20324;-83
2022/12/26 06:18:41;;;;;;;;;;;;;;;14.26;38.85;99902.00;5017337;28;19921;-78
2022/12/26 06:21:07;;;;;;;;;;;;;;;15.18;37.03;99910.06;5017452;28;19921;-83
2022/12/26 06:23:33;;;;;;;;;;;;;;;16.08;35.52;99907.44;5035596;28;19917;-74
2022/12/26 06:25:58;;;;;;;;;;;;;;;17.28;49.03;99917.75;5038199;28;20377;-74
2022/12/26 06:28:24;;;;;;;;;;;;;;;18.36;48.79;99918.06;5002434;28;19917;-74
2022/12/26 06:30:49;;;;;;;;;;;;;;;19.22;47.25;99917.31;5017101;28;19921;-75
2022/12/26 06:33:15;;;;;;;;;;;;;;;19.86;44.01;99926.25;5017106;28;19924;-81
2022/12/26 06:35:40;;;;;;;;;;;;;;;20.30;42.27;99917.63;5017794;28;19917;-79
2022/12/26 06:38:05;;;;;;;;;;;;;;;20.86;46.43;99915.63;5035135;28;19917;-85
2022/12/26 06:40:31;;;;;;;;;;;;;;;21.05;44.26;99914.63;5022793;28;20403;-84
2022/12/26 06:42:56;;;;;;;;;;;;;;;21.17;42.46;99915.19;5034038;28;20311;-79
2022/12/26 06:45:21;;;;;;;;;;;;;;;21.05;41.82;99927.91;5032867;28;19917;-80
2022/12/26 06:47:46;;;;;;;;;;;;;;;21.02;40.81;99925.56;5035443;28;19921;-77
2022/12/26 06:50:12;;;;;;;;;;;;;;;21.01;40.74;99929.19;5033445;28;20447;-79
2022/12/26 06:52:37;;;;;;;;;;;;;;;21.03;38.76;99924.53;5033388;28;19996;-75
2022/12/26 06:55:03;;;;;;;;;;;;;;;21.18;39.73;99935.44;5049081;28;20385;-77
2022/12/26 06:57:28;;;;;;;;;;;;;;;21.44;42.72;99927.44;5053730;28;20012;-81
2022/12/26 06:59:53;;;;;;;;;;;;;;;21.60;41.96;99929.38;5053190;28;20007;-76
2022/12/26 07:02:19;;;;;;;;;;;;;;;21.72;39.21;99927.28;5054941;28;19971;-76
2022/12/26 07:04:44;;;;;;;;;;;;;;;21.94;39.44;99933.81;5054388;28;19924;-77
2022/12/26 07:07:09;;;;;;;;;;;;;;;22.05;38.62;99930.88;5052253;28;19971;-77
2022/12/26 07:09:34;;;;;;;;;;;;;;;22.05;39.36;99930.88;5054752;28;20347;-83
2022/12/26 07:12:00;;;;;;;;;;;;;;;22.12;37.46;99929.22;5061747;28;19921;-77
2022/12/26 07:14:25;;;;;;;;;;;;;;;22.38;36.29;99926.47;5054665;28;20018;-79
2022/12/26 07:16:50;;;;;;;;;;;;;;;22.67;36.14;99924.31;5036735;28;19917;-77
2022/12/26 07:19:16;;;;;;;;;;;;;;;22.95;34.43;99922.97;5053780;28;19917;-77
2022/12/26 07:21:41;;;;;;;;;;;;;;;23.29;32.50;99915.78;5054154;28;20406;-79
2022/12/26 07:24:10;;;;;;;;;;;;;;;23.50;30.73;99917.88;5054057;28;20003;-76
2022/12/26 07:26:36;;;;;;;;;;;;;;;23.66;29.82;99923.13;5052967;28;19917;-76
2022/12/26 07:29:02;;;;;;;;;;;;;;;23.74;28.93;99926.78;5036107;28;19916;-79
2022/12/26 07:31:27;;;;;;;;;;;;;;;23.88;28.30;99934.06;5035099;28;19925;-76
2022/12/26 07:33:53;;;;;;;;;;;;;;;24.08;32.31;99934.44;5017033;28;20316;-77
2022/12/26 07:36:18;;;;;;;;;;;;;;;24.14;30.20;99933.75;5032953;28;19975;-74
2022/12/26 07:38:44;;;;;;;;;;;;;;;24.24;29.07;99935.38;5033502;28;19948;-77
2022/12/26 07:43:53;;;;;;;;;;;;;;;24.62;29.91;99943.47;5052564;28;19971;-81
2022/12/26 07:46:18;;;;;;;;;;;;;;;24.76;28.31;99940.00;5053081;28;19917;-79
2022/12/26 07:48:44;;;;;;;;;;;;;;;24.89;27.19;99939.38;5052514;28;19939;-81
2022/12/26 07:51:09;;;;;;;;;;;;;;;25.01;28.27;99943.28;5053739;28;19920;-82
2022/12/26 07:53:34;;;;;;;;;;;;;;;25.02;26.42;99949.47;5052549;28;19995;-82
2022/12/26 07:56:00;;;;;;;;;;;;;;;25.08;25.29;99948.72;5035457;28;19932;-79
2022/12/26 07:58:25;;;;;;;;;;;;;;;25.14;25.69;99958.69;5052062;28;19924;-75
2022/12/26 08:00:51;;;;;;;;;;;;;;;25.19;26.03;99952.78;5052114;28;19917;-81
2022/12/26 08:03:16;;;;;;;;;;;;;;;25.26;24.97;99959.06;5035448;28;19916;-83
2022/12/26 08:05:48;;;;;;;;;;;;;;;25.29;24.11;99953.41;5050317;28;19923;-85
2022/12/26 08:08:13;;;;;;;;;;;;;;;25.36;23.92;99954.31;5033049;28;20023;-79
2022/12/26 08:10:38;;;;;;;;;;;;;;;25.42;23.10;99952.75;5050893;28;19976;-83
2022/12/26 08:13:04;;;;;;;;;;;;;;;25.49;22.96;99952.84;5051976;28;19931;-82
2022/12/26 08:15:29;;;;;;;;;;;;;;;25.55;22.42;99963.63;5049948;28;19956;-82
2022/12/26 08:17:54;;;;;;;;;;;;;;;25.60;22.49;99971.09;5050331;28;20030;-83
2022/12/26 08:20:20;;;;;;;;;;;;;;;25.65;22.30;99976.72;5051100;28;20284;-77
2022/12/26 08:22:45;;;;;;;;;;;;;;;25.72;22.13;99980.31;5055459;28;19916;-78
2022/12/26 08:25:10;;;;;;;;;;;;;;;25.82;21.59;99975.53;5035099;28;19923;-80
2022/12/26 08:27:36;;;;;;;;;;;;;;;25.86;21.57;99973.28;5052450;28;19923;-83
2022/12/26 08:30:01;;;;;;;;;;;;;;;25.92;21.86;99966.34;5035128;28;19975;-80
2022/12/26 08:32:26;;;;;;;;;;;;;;;25.98;21.66;99960.28;5035225;28;20446;-82
2022/12/26 08:34:51;;;;;;;;;;;;;;;26.02;21.54;99971.47;5052104;28;19917;-82
2022/12/26 08:37:17;;;;;;;;;;;;;;;26.07;21.58;99955.66;5052123;28;19979;-83
2022/12/26 08:39:42;;;;;;;;;;;;;;;26.12;21.16;99958.59;5034853;28;19917;-83
2022/12/26 08:42:07;;;;;;;;;;;;;;;26.18;21.21;99964.00;5051843;28;19916;-83
2022/12/26 08:44:33;;;;;;;;;;;;;;;26.16;21.30;99963.38;5042923;28;19971;-82
2022/12/26 08:46:58;;;;;;;;;;;;;;;26.16;21.41;99960.72;5015295;28;19917;-81
2022/12/26 08:49:23;;;;;;;;;;;;;;;26.18;21.31;99952.50;5031639;28;20418;-84
2022/12/26 08:51:48;;;;;;;;;;;;;;;26.16;21.15;99952.69;5033123;28;19921;-82
2022/12/26 08:54:14;;;;;;;;;;;;;;;26.24;20.92;99945.56;5033321;28;19917;-86
2022/12/26 08:56:39;;;;;;;;;;;;;;;26.35;20.83;99947.72;5032691;28;19932;-84
2022/12/26 08:59:04;;;;;;;;;;;;;;;26.53;20.79;99944.59;5014542;28;19917;-83
2022/12/26 09:01:30;;;;;;;;;;;;;;;26.68;20.38;99940.03;5032196;28;20370;-84
2022/12/26 09:03:56;;;;;;;;;;;;;;;26.95;20.52;99940.25;5013501;28;19917;-84
2022/12/26 09:06:21;;;;;;;;;;;;;;;27.32;19.76;99930.22;5031041;28;19917;-84
2022/12/26 09:08:47;;;;;;;;;;;;;;;27.65;19.59;99928.75;5030931;28;19917;-84
2022/12/26 09:11:13;;;;;;;;;;;;;;;27.93;19.15;99929.47;5032104;28;19923;-84
2022/12/26 09:13:38;;;;;;;;;;;;;;;27.95;19.05;99924.75;5032661;28;20360;-83
2022/12/26 09:16:04;;;;;;;;;;;;;;;27.98;19.07;99928.88;5030703;28;19943;-83
2022/12/26 09:18:30;;;;;;;;;;;;;;;27.98;19.16;99928.88;5030581;28;19928;-84
2022/12/26 09:20:58;;;;;;;;;;;;;;;28.00;19.20;99917.94;5013742;28;20012;-80
2022/12/26 09:23:23;;;;;;;;;;;;;;;28.07;19.19;99918.78;5031866;28;19956;-83
2022/12/26 09:25:48;;;;;;;;;;;;;;;28.17;18.99;99916.53;5014124;28;20392;-82
2022/12/26 09:28:14;;;;;;;;;;;;;;;28.21;18.90;99912.44;5033818;28;20008;-82
2022/12/26 09:30:39;;;;;;;;;;;;;;;28.26;18.88;99912.66;5034890;28;19921;-79
2022/12/26 09:33:06;;;;;;;;;;;;;;;28.36;18.87;99914.09;5001383;28;19917;-81
2022/12/26 09:35:32;;;;;;;;;;;;;;;28.51;18.66;99920.09;5017356;28;20003;-83
2022/12/26 09:37:57;;;;;;;;;;;;;;;28.75;18.37;99905.25;5035556;28;20341;-81
2022/12/26 09:40:23;;;;;;;;;;;;;;;29.16;17.83;99900.63;5017034;28;20016;-82
2022/12/26 09:42:55;;;;;;;;;;;;;;;29.72;17.59;99901.94;5034290;28;19924;-81
2022/12/26 09:45:24;;;;;;;;;;;;;;;30.68;16.29;99889.34;5033851;28;20350;-79
2022/12/26 09:48:18;;;;;;;;;;;;;;;31.58;15.80;99893.41;5017325;28;20442;-84
2022/12/26 09:50:43;;;;;;;;;;;;;;;32.43;15.13;99889.72;5031892;28;19964;-85
2022/12/26 09:53:33;;;;;;;;;;;;;;;33.27;14.13;99882.44;5034146;28;19952;-84
2022/12/26 09:55:59;;;;;;;;;;;;;;;33.81;14.03;99879.44;4889686;29;1900096;-84
2022/12/26 09:58:26;;;;;;;;;;;;;;;34.34;13.12;99880.13;4940316;29;19923;-85
2022/12/26 10:00:56;;;;;;;;;;;;;;;34.24;13.38;99878.09;4937397;29;19922;-84
2022/12/26 10:03:21;;;;;;;;;;;;;;;34.50;13.50;99873.06;4956120;29;19919;-84
2022/12/26 10:05:49;;;;;;;;;;;;;;;35.22;13.09;99869.47;4956264;29;19941;-85
2022/12/26 10:08:26;;;;;;;;;;;;;;;35.61;12.75;99872.09;4955499;29;19918;-85
2022/12/26 10:10:59;;;;;;;;;;;;;;;35.68;12.53;99856.44;4955557;29;20020;-84
2022/12/26 10:13:45;;;;;;;;;;;;;;;36.07;11.96;99852.75;4955995;29;19919;-83
2022/12/26 10:16:14;;;;;;;;;;;;;;;36.17;12.10;99850.13;4955524;29;19962;-83
2022/12/26 10:18:55;;;;;;;;;;;;;;;36.32;12.03;99843.19;4939187;29;19986;-84
2022/12/26 10:21:32;;;;;;;;;;;;;;;36.18;12.00;99840.91;4955548;29;20021;-83
2022/12/26 10:24:01;;;;;;;;;;;;;;;35.71;12.36;99836.13;4955456;29;19962;-83
2022/12/26 10:26:37;;;;;;;;;;;;;;;35.05;12.72;99825.31;4955115;29;20378;-84
2022/12/26 10:29:08;;;;;;;;;;;;;;;34.19;13.22;99832.72;4955193;29;19918;-84
2022/12/26 10:31:36;;;;;;;;;;;;;;;33.41;13.97;99812.63;4955379;29;19934;-84
2022/12/26 10:34:07;;;;;;;;;;;;;;;32.70;15.04;99812.78;5030687;28;20303;-83
2022/12/26 10:36:43;;;;;;;;;;;;;;;32.06;15.30;99816.09;5035384;28;20438;-83
2022/12/26 10:39:28;;;;;;;;;;;;;;;31.37;15.74;99811.88;5017203;28;19979;-83
2022/12/26 10:42:10;;;;;;;;;;;;;;;30.59;16.40;99812.53;5024813;28;19917;-84
2022/12/26 10:44:36;;;;;;;;;;;;;;;29.88;16.80;99814.50;5034239;28;19917;-85
2022/12/26 10:47:06;;;;;;;;;;;;;;;29.34;17.64;99804.03;5033963;28;19933;-84
2022/12/26 10:49:32;;;;;;;;;;;;;;;28.88;18.00;99799.63;5033935;28;19971;-84
2022/12/26 10:51:58;;;;;;;;;;;;;;;28.42;18.45;99795.94;5035737;28;19945;-83
2022/12/26 10:54:23;;;;;;;;;;;;;;;28.05;18.87;99794.72;5033738;28;19932;-84
2022/12/26 10:56:49;;;;;;;;;;;;;;;27.69;18.89;99798.53;5035222;28;19925;-83
2022/12/26 10:59:35;;;;;;;;;;;;;;;27.34;19.69;99791.47;5033654;28;19979;-84
2022/12/26 11:02:10;;;;;;;;;;;;;;;27.04;20.01;99785.50;5035047;28;20467;-84
2022/12/26 11:04:35;;;;;;;;;;;;;;;26.76;20.57;99783.72;5033713;28;19917;-84
2022/12/26 11:07:00;;;;;;;;;;;;;;;26.52;20.71;99780.47;5034708;28;20310;-84
2022/12/26 11:09:41;;;;;;;;;;;;;;;26.31;21.17;99783.19;5033079;28;20403;-84
2022/12/26 11:12:18;;;;;;;;;;;;;;;26.13;21.64;99781.81;5033333;28;19921;-79
2022/12/26 11:14:43;;;;;;;;;;;;;;;25.99;21.61;99780.03;5035223;28;19956;-76
2022/12/26 11:17:13;;;;;;;;;;;;;;;25.60;21.63;99778.59;5056674;28;20395;-76
2022/12/26 11:19:39;;;;;;;;;;;;;;;25.09;22.29;99774.06;5030579;28;20463;-78
2022/12/26 11:22:24;;;;;;;;;;;;;;;24.72;22.52;99773.19;5056456;28;19923;-78
2022/12/26 11:25:08;;;;;;;;;;;;;;;24.27;24.59;99775.75;5057055;28;19916;-77
2022/12/26 11:27:33;;;;;;;;;;;;;;;23.90;25.52;99768.59;5075447;28;19928;-80
2022/12/26 11:30:13;;;;;;;;;;;;;;;23.80;25.54;99758.97;5039505;28;19996;-79
2022/12/26 11:32:43;;;;;;;;;;;;;;;23.70;25.36;99763.69;5073967;28;19921;-81
2022/12/26 11:35:18;;;;;;;;;;;;;;;23.66;24.63;99762.38;5055735;28;19924;-85
2022/12/26 11:37:44;;;;;;;;;;;;;;;23.54;24.50;99758.47;5056045;28;19921;-81
2022/12/26 11:40:19;;;;;;;;;;;;;;;23.46;25.68;99764.66;5035370;28;19994;-78
2022/12/26 11:42:49;;;;;;;;;;;;;;;23.30;25.92;99763.75;5055898;28;20409;-79
2022/12/26 11:45:14;;;;;;;;;;;;;;;23.15;25.70;99757.53;5038435;28;19942;-81
2022/12/26 11:47:39;;;;;;;;;;;;;;;23.05;25.59;99755.03;5038934;28;20419;-82
2022/12/26 11:50:05;;;;;;;;;;;;;;;22.92;25.42;99760.06;5038584;28;19916;-83
2022/12/26 11:52:33;;;;;;;;;;;;;;;22.67;25.80;99762.81;5059560;28;19920;-77
2022/12/26 11:54:59;;;;;;;;;;;;;;;22.48;25.87;99756.03;5052078;28;20011;-83
2022/12/26 11:57:28;;;;;;;;;;;;;;;22.34;25.83;99751.41;5055698;28;19959;-81
2022/12/26 11:59:53;;;;;;;;;;;;;;;22.18;25.77;99752.22;5038424;28;20010;-80
2022/12/26 12:02:21;;;;;;;;;;;;;;;21.99;26.13;99758.72;5038968;28;19955;-79
2022/12/26 12:04:47;;;;;;;;;;;;;;;21.80;26.44;99751.91;5055688;28;19916;-80
2022/12/26 12:07:12;;;;;;;;;;;;;;;21.64;26.40;99750.88;5038905;28;19966;-78
2022/12/26 12:10:01;;;;;;;;;;;;;;;21.45;28.17;99749.31;5071447;28;19931;-82
2022/12/26 12:12:35;;;;;;;;;;;;;;;21.29;33.00;99758.06;4969387;28;19977;-79
2022/12/26 12:15:00;;;;;;;;;;;;;;;21.13;31.86;99745.59;4955334;28;20461;-90
2022/12/26 12:17:31;;;;;;;;;;;;;;;21.05;30.57;99744.75;4958350;28;19925;-83
2022/12/26 12:20:15;;;;;;;;;;;;;;;20.94;34.65;99749.31;4956255;28;20417;-78
2022/12/26 12:22:42;;;;;;;;;;;;;;;20.86;38.55;99748.44;4972433;28;19922;-81
2022/12/26 12:25:07;;;;;;;;;;;;;;;20.73;34.17;99757.69;4957482;28;19922;-87
2022/12/26 12:27:33;;;;;;;;;;;;;;;20.52;32.55;99758.03;4956296;28;19925;-80
2022/12/26 12:29:58;;;;;;;;;;;;;;;20.39;30.96;99755.78;4955514;28;19922;-81
2022/12/26 12:32:35;;;;;;;;;;;;;;;20.22;30.45;99752.19;4971697;28;20447;-82
2022/12/26 12:35:07;;;;;;;;;;;;;;;19.93;30.23;99760.41;4971846;28;20028;-85
2022/12/26 12:37:50;;;;;;;;;;;;;;;19.78;39.34;99761.94;4971998;28;19930;-77
2022/12/26 12:40:29;;;;;;;;;;;;;;;19.72;41.22;99766.00;4971434;28;20381;-74
2022/12/26 12:42:54;;;;;;;;;;;;;;;19.59;37.79;99765.53;4936810;28;20009;-79
2022/12/26 12:45:19;;;;;;;;;;;;;;;19.49;36.12;99773.53;4971865;28;20008;-77
2022/12/26 12:47:45;;;;;;;;;;;;;;;19.38;34.83;99766.63;4955537;28;19925;-83
2022/12/26 12:50:13;;;;;;;;;;;;;;;19.24;33.90;99769.78;5035731;28;19921;-83
2022/12/26 12:52:59;;;;;;;;;;;;;;;19.14;44.03;99777.78;5054238;28;19917;-84
2022/12/26 12:55:30;;;;;;;;;;;;;;;19.02;40.24;99771.00;5054614;28;20307;-71
2022/12/26 12:57:56;;;;;;;;;;;;;;;19.04;47.75;99774.31;5073036;28;20273;-75
2022/12/26 13:00:26;;;;;;;;;;;;;;;19.02;46.32;99771.00;5072470;28;19946;-80
2022/12/26 13:02:55;;;;;;;;;;;;;;;18.87;43.86;99766.19;5038004;28;19917;-75
2022/12/26 13:05:24;;;;;;;;;;;;;;;18.81;43.02;99758.81;5047401;28;19924;-83
2022/12/26 13:08:09;;;;;;;;;;;;;;;18.69;41.71;99759.97;5011799;28;19917;-81
2022/12/26 13:10:37;;;;;;;;;;;;;;;18.56;39.23;99747.88;5030182;28;20368;-76
2022/12/26 13:13:35;;;;;;;;;;;;;;;18.58;46.59;99755.66;5013346;28;19917;-72
2022/12/26 13:16:02;;;;;;;;;;;;;;;18.50;44.58;99748.47;4989875;28;19922;-84
2022/12/26 13:18:29;;;;;;;;;;;;;;;18.36;42.05;99744.47;4957728;28;19925;-79
2022/12/26 13:20:58;;;;;;;;;;;;;;;18.21;40.70;99738.78;4957368;28;19953;-76
2022/12/26 13:26:20;;;;;;;;;;;;;;;17.89;39.27;99736.47;4991843;28;20364;-82
2022/12/26 13:28:55;;;;;;;;;;;;;;;17.89;48.86;99733.81;4971889;28;19921;-74
2022/12/26 13:31:20;;;;;;;;;;;;;;;17.95;47.06;99730.63;4984917;28;20042;-84
2022/12/26 13:33:45;;;;;;;;;;;;;;;17.88;45.65;99740.94;4986143;28;19955;-78
2022/12/26 13:36:31;;;;;;;;;;;;;;;17.80;44.78;99735.44;4971274;28;20283;-80
2022/12/26 13:39:00;;;;;;;;;;;;;;;17.72;44.16;99735.31;4953492;28;19918;-77
2022/12/26 13:44:18;;;;;;;;;;;;;;;17.75;48.07;99742.13;4970328;28;19965;-78
2022/12/26 13:46:48;;;;;;;;;;;;;;;17.73;49.22;99742.28;4969845;28;20401;-74
2022/12/26 13:49:37;;;;;;;;;;;;;;;17.72;48.23;99743.25;4970199;28;19953;-74
2022/12/26 13:52:18;;;;;;;;;;;;;;;17.61;46.16;99749.47;5017533;28;19929;-80
2022/12/26 13:54:46;;;;;;;;;;;;;;;17.41;44.27;99750.41;5051957;28;20078;-81
2022/12/26 13:57:31;;;;;;;;;;;;;;;17.24;42.75;99747.47;5013755;28;20019;-81
2022/12/26 14:00:20;;;;;;;;;;;;;;;17.21;47.15;99750.38;5010629;28;20776;-83
2022/12/26 14:02:50;;;;;;;;;;;;;;;17.07;44.24;99754.22;4953886;28;20430;-84
2022/12/26 14:05:21;;;;;;;;;;;;;;;16.91;43.11;99753.91;4938612;28;19926;-84
2022/12/26 14:08:00;;;;;;;;;;;;;;;16.75;42.15;99747.28;4953358;28;19968;-83
2022/12/26 14:10:31;;;;;;;;;;;;;;;16.62;41.56;99739.59;4953188;28;19922;-83
2022/12/26 14:13:00;;;;;;;;;;;;;;;16.48;40.95;99739.09;4952851;28;19985;-76
2022/12/26 14:15:27;;;;;;;;;;;;;;;16.41;42.74;99744.91;4956909;28;20047;-83
2022/12/26 14:17:52;;;;;;;;;;;;;;;16.32;42.34;99755.34;4958440;28;19918;-79
2022/12/26 14:20:30;;;;;;;;;;;;;;;16.18;41.92;99754.72;4956461;28;19937;-78
2022/12/26 14:23:26;;;;;;;;;;;;;;;16.06;41.75;99753.94;4973591;28;19925;-76
2022/12/26 14:25:55;;;;;;;;;;;;;;;15.92;41.45;99756.88;4946760;28;19958;-76
2022/12/26 14:28:20;;;;;;;;;;;;;;;15.78;41.16;99760.66;4940527;28;19922;-78
2022/12/26 14:30:52;;;;;;;;;;;;;;;15.67;41.21;99758.88;5057189;23;19934;-79
2022/12/26 14:33:28;;;;;;;;;;;;;;;15.58;41.14;99764.06;5011347;28;20410;-79
2022/12/26 14:36:06;;;;;;;;;;;;;;;15.43;40.95;99755.59;4978718;28;19932;-84
2022/12/26 14:38:41;;;;;;;;;;;;;;;15.38;47.16;99754.16;5002916;28;20388;-79
2022/12/26 14:41:07;;;;;;;;;;;;;;;15.28;44.37;99761.13;5003758;28;19933;-82
2022/12/26 14:43:37;;;;;;;;;;;;;;;15.16;43.49;99751.56;4997046;28;19925;-80
2022/12/26 14:46:28;;;;;;;;;;;;;;;15.04;43.12;99763.91;5009555;28;20395;-85
2022/12/26 14:48:54;;;;;;;;;;;;;;;14.90;42.94;99764.16;5013131;28;19918;-85
2022/12/26 14:51:25;;;;;;;;;;;;;;;14.80;42.64;99767.50;5013822;28;20380;-85
2022/12/26 14:54:21;;;;;;;;;;;;;;;14.71;42.51;99762.13;5013497;28;19917;-88
2022/12/26 14:56:47;;;;;;;;;;;;;;;14.60;42.44;99766.38;4988890;28;20031;-87
2022/12/26 14:59:29;;;;;;;;;;;;;;;14.49;42.53;99771.59;5014099;28;20387;-85
2022/12/26 15:02:00;;;;;;;;;;;;;;;14.45;45.56;99772.78;5013984;28;20416;-89
2022/12/26 15:04:32;;;;;;;;;;;;;;;14.42;45.11;99778.25;5014898;28;20027;-79
2022/12/26 15:07:00;;;;;;;;;;;;;;;14.36;44.30;99768.22;5013029;28;19917;-80
2022/12/26 15:09:41;;;;;;;;;;;;;;;14.28;44.04;99769.66;5013388;28;19922;-80